Flight Track Log - Related Links

Times and Time Zones

All times are in EDT time to prevent confusion due to time zone crossing. See the N405DD flight status page for this flight to view local times or setup timezone preferences in your user account.

Time Position Orientation Groundspeed Altitude Reporting Facility
EDT Latitude Longitude Course Direction KTS MPH feet Rate Location/Type
Wed 09:13:04 AM 46.7792 -100.5031 75° East 176 203 6,100  Level Minneapolis Center
Wed 09:14:05 AM 46.7881 -100.4408 78° East 157 181 7,300 1,122 Climbing Minneapolis Center
Wed 09:15:00 AM 46.8445 -100.2553 70° East  Level FlightAware Approximate
Wed 09:15:07 AM 46.7978 -100.3794 77° East 156 180 8,400  Level Minneapolis Center
Wed 09:16:00 AM 46.8577 -100.1757 79° East  Level FlightAware Approximate
Wed 09:16:21 AM 46.8122 -100.2933 76° East 166 191 9,600  Level Minneapolis Center
Wed 09:17:23 AM 46.8242 -100.2292 75° East 165 190 10,500 919 Climbing Minneapolis Center
Wed 09:18:25 AM 46.8367 -100.1617 75° East 168 193 11,500 1,171 Climbing Minneapolis Center
Wed 09:19:26 AM 46.8461 -100.0800 80° East 169 194 12,900 1,171 Climbing Minneapolis Center
Wed 09:20:28 AM 46.8564 -100.0153 77° East 167 192 13,900 1,016 Climbing Minneapolis Center
Wed 09:21:30 AM 46.8658 -99.9483 78° East 168 193 15,000 1,073 Climbing Minneapolis Center
Wed 09:22:31 AM 46.8764 -99.8822 77° East 167 192 16,100 1,073 Climbing Minneapolis Center
Wed 09:23:33 AM 46.8864 -99.8161 77° East 168 193 17,200 968 Climbing Minneapolis Center
Wed 09:24:35 AM 46.8975 -99.7497 76° East 168 193 18,100 919 Climbing Minneapolis Center
Wed 09:25:37 AM 46.9036 -99.6842 82° East 164 189 19,100 976 Climbing Minneapolis Center
Wed 09:26:38 AM 46.9153 -99.6053 78° East 168 193 20,100 927 Climbing Minneapolis Center
Wed 09:27:40 AM 46.9250 -99.5400 78° East 164 189 21,000 823 Climbing Minneapolis Center
Wed 09:28:42 AM 46.9344 -99.4758 78° East 161 185 21,800 726 Climbing Minneapolis Center
Wed 09:29:44 AM 46.9439 -99.4122 78° East 161 185 22,500 585 Climbing Minneapolis Center
Wed 09:30:45 AM 46.9536 -99.3469 78° East 170 196 23,000 244 Climbing Minneapolis Center
Wed 09:31:47 AM 46.9644 -99.2719 78° East 195 224 23,000  Level Minneapolis Center
Wed 09:32:49 AM 46.9789 -99.1733 78° East 210 242 23,000  Level Minneapolis Center
Wed 09:33:51 AM 46.9914 -99.0886 78° East 214 246 23,000  Level Minneapolis Center
Wed 09:34:52 AM 47.0036 -99.0033 78° East 216 249 23,000  Level Minneapolis Center
Wed 09:35:54 AM 47.0161 -98.9172 78° East 218 251 23,000  Level Minneapolis Center
Wed 09:36:56 AM 47.0283 -98.8300 78° East 219 252 23,000  Level Minneapolis Center
Wed 09:37:57 AM 47.0408 -98.7428 78° East 219 252 23,000  Level Minneapolis Center
Wed 09:38:59 AM 47.0531 -98.6553 78° East 221 254 23,000  Level Minneapolis Center
Wed 09:40:01 AM 47.0681 -98.5500 78° East 222 255 23,000  Level Minneapolis Center
Wed 09:41:03 AM 47.0803 -98.4614 79° East 223 257 23,000  Level Minneapolis Center
Wed 09:42:04 AM 47.0925 -98.3725 79° East 223 257 23,000  Level Minneapolis Center
Wed 09:47:52 AM 47.1640 -97.8470 79° East 225 259 23,000  Level FlightAware ADS-B
Wed 09:48:32 AM 47.1720 -97.7870 79° East 225 259 23,000  Level FlightAware ADS-B
Wed 09:49:17 AM 47.1800 -97.7220 80° East 224 258 23,000  Level FlightAware ADS-B
Wed 09:49:57 AM 47.1880 -97.6630 79° East 224 258 23,000  Level FlightAware ADS-B
Wed 09:50:37 AM 47.1950 -97.6070 80° East 225 259 23,000  Level FlightAware ADS-B
Wed 09:51:22 AM 47.2040 -97.5370 79° East 223 257 23,000  Level FlightAware ADS-B
Wed 09:52:02 AM 47.2130 -97.4740 78° East 225 259 23,000  Level FlightAware ADS-B
Wed 09:52:47 AM 47.2210 -97.4080 80° East 225 259 23,000  Level FlightAware ADS-B
Wed 09:53:27 AM 47.2290 -97.3460 79° East 226 260 23,000  Level FlightAware ADS-B
Wed 09:54:12 AM 47.2370 -97.2790 80° East 226 260 23,000  Level FlightAware ADS-B
Wed 09:55:07 AM 47.2480 -97.1970 79° East 228 262 23,000  Level FlightAware ADS-B
Wed 09:56:02 AM 47.2590 -97.1100 79° East 228 262 23,000  Level FlightAware ADS-B
Wed 09:56:37 AM 47.2650 -97.0640 79° East 228 262 23,000  Level FlightAware ADS-B
Wed 09:57:27 AM 47.2750 -96.9820 80° East 230 265 23,000  Level FlightAware ADS-B
Wed 09:58:02 AM 47.2810 -96.9330 80° East 230 265 23,000  Level FlightAware ADS-B
Wed 09:58:52 AM 47.2910 -96.8500 80° East 231 266 23,000  Level FlightAware ADS-B
Wed 09:59:32 AM 47.2990 -96.7880 79° East 230 265 23,000  Level FlightAware ADS-B
Wed 10:00:12 AM 47.3070 -96.7250 79° East 231 266 23,000  Level FlightAware ADS-B
Wed 10:00:57 AM 47.3150 -96.6580 80° East 231 266 23,000  Level FlightAware ADS-B
Wed 10:01:37 AM 47.3220 -96.5990 80° East 231 266 23,000  Level FlightAware ADS-B
Wed 10:02:17 AM 47.3300 -96.5320 80° East 231 266 23,000  Level FlightAware ADS-B
Wed 10:03:02 AM 47.3390 -96.4620 79° East 231 266 23,000  Level FlightAware ADS-B
Wed 10:03:37 AM 47.3450 -96.4110 80° East 232 267 23,000  Level FlightAware ADS-B
Wed 10:04:27 AM 47.3540 -96.3300 81° East 233 268 23,000  Level FlightAware ADS-B
Wed 10:05:07 AM 47.3610 -96.2700 80° East 232 267 23,000 -225 Level FlightAware ADS-B
Wed 10:05:47 AM 47.3680 -96.2080 81° East 223 257 22,700 -988 Descending FlightAware ADS-B
Wed 10:06:32 AM 47.3760 -96.1370 81° East 234 269 21,600 -847 Descending FlightAware ADS-B
Wed 10:07:12 AM 47.3840 -96.0810 78° East 234 269 21,500 -1,500 Descending FlightAware ADS-B
Wed 10:07:52 AM 47.3920 -96.0090 81° East 243 280 19,600 -2,175 Descending FlightAware ADS-B
Wed 10:08:32 AM 47.3990 -95.9430 81° East 241 277 18,600 -706 Descending FlightAware ADS-B
Wed 10:09:17 AM 47.4080 -95.8790 78° East 241 277 18,600 -1,482 Level FlightAware ADS-B
Wed 10:09:57 AM 47.4150 -95.8090 82° East 240 276 16,500 -1,835 Descending FlightAware ADS-B
Wed 10:10:42 AM 47.4240 -95.7380 79° East 239 275 16,000 -353 Descending FlightAware ADS-B
Wed 10:11:22 AM 47.4310 -95.6830 79° East 239 275 16,000  Level FlightAware ADS-B
Wed 10:12:02 AM 47.4380 -95.6290 79° East 239 275 16,000  Level FlightAware ADS-B
Wed 10:12:42 AM 47.4450 -95.5740 79° East 239 275 16,000  Level FlightAware ADS-B
Wed 10:13:32 AM 47.4540 -95.5060 79° East 239 275 16,000  Level FlightAware ADS-B
Wed 10:14:12 AM 47.4610 -95.4510 79° East 239 275 16,000 -4,200 Level FlightAware ADS-B
Wed 10:15:02 AM 47.3722 -95.3722 79° East 202 232 9,700 -3,804 Descending Minneapolis Center
Wed 10:16:04 AM 47.3617 -95.3008 102° East 185 213 8,900 -774 Descending Minneapolis Center
Wed 10:17:06 AM 47.3517 -95.2311 102° East 178 205 8,100 -871 Descending Minneapolis Center
Wed 10:18:08 AM 47.3408 -95.1481 101° East 174 200 7,100 -871 Descending Minneapolis Center
Wed 10:19:10 AM 47.3306 -95.0803 103° East 172 198 6,300 -774 Descending Minneapolis Center
Wed 10:20:12 AM 47.3217 -95.0125 101° East 171 197 5,500 -774 Descending Minneapolis Center
Wed 10:21:14 AM 47.3131 -94.9456 101° East 169 194 4,700 -726 Descending Minneapolis Center
Wed 10:22:16 AM 47.3022 -94.8772 103° East 169 194 4,000 -339 Descending Minneapolis Center
Wed 10:23:18 AM 47.2953 -94.8167 100° East 163 188 4,000  Level Minneapolis Center
Wed 10:24:20 AM 47.3289 -94.7700 43° Northeast 141 162 4,000  Level Minneapolis Center
Wed 10:25:21 AM 47.3542 -94.7322 45° Northeast 135 155 4,000  Level Minneapolis Center

Login

Don't have an account? Register now (free) for customized features, flight alerts, and more!